Amqui, Quebec

3:16 PM ADT on September 22, 2014 (GMT -0300)
IQUBECMA3 | Change Station
CLOSE
Current Station
Personal Weather Station
Location: Matane, Québec
Elevation: 26 ft
Nearby Weather Stations

Elev 26 ft 48.80 °N, 67.54 °W | Updated 49 seconds ago

Light Rain
Light Rain
61.8 °F
Feels Like 61.8 °F
N
6.0
Wind Variable Wind from SSW
Gusts 13.0 mph

Today is forecast to be nearly the same temperature as yesterday.

Today
High -- | Low -- °F
--% Chance of Precip.
Yesterday
High -- | Low -- °F
Precip. -- in
7:16 AM 7:27 PM
Waning Crescent, 2% visible
Pressure 29.32 in
Visibility 15.0 miles
Clouds Mostly Cloudy 2000 ft
Mostly Cloudy 4000 ft
Dew Point 58 °F
Humidity 87%
Rainfall -999.00 in
Snow Depth Not available.
UV 3 out of 12
Pollen Not available.
Air Quality Not available.
Flu Activity Not available.
METAR CYYY 221700Z 22014G23KT 15SM -RA BKN020 BKN040 13/11 A2931 RMK SC5SC2 PRESFR SLP927 DENSITY ALT 600FT

More Conditions Fewer Conditions

Pressure 29.32 in
Visibility 15.0 miles
Clouds Mostly Cloudy 2000 ft
Mostly Cloudy 4000 ft
Dew Point 58 °F
Humidity 87%
Rainfall -999.00 in
Snow Depth Not available.
UV 3 out of 12
Pollen Not available.
Air Quality Not available.
Flu Activity Not available.
METAR CYYY 221700Z 22014G23KT 15SM -RA BKN020 BKN040 13/11 A2931 RMK SC5SC2 PRESFR SLP927 DENSITY ALT 600FT

More Conditions Fewer Conditions

10-Day Weather Forecast

Almanac

Astronomy

Sep. 22, 2014 Rise Set
Actual Time 7:16 AM ADT 7:27 PM ADT
Civil Twilight 6:44 AM ADT 7:58 PM ADT
Nautical Twilight 6:07 AM ADT 8:35 PM ADT
Astronomical Twilight 5:29 AM ADT 9:13 PM ADT
Moon 5:36 AM ADT 6:36 PM ADT
Length of Visible Light 13h 14m
Length of Day
12h 11m
Tomorrow will be 3m 31s shorter.
Waning Crescent, 2% of the Moon is Illuminated
Today
Waning Crescent
Sep 24
New
Oct 1
First Quarter
Oct 8
Full
Oct 15
Last Quarter

Today's Extremes

Country Highs Country Lows

Community

WunderPhotos

Upload Photos

1,755,498 photos uploaded!

WunderBlogs® & News

By Dr. Jeff Masters
Director of Meteorology, Weather Underground
By Kari Strenfel
Meteorologist, Weather Underground
By Christopher C. Burt
Weather Historian, Weather Underground
September 22, 2014
September 22, 2014
September 22, 2014

Nearby

Snow Depth

Not available.

Earthquake Activity

City Distance Mag. Time & Date
No recent earthquake activity has been reported nearby.
Minimum magnitude displayed is 2.5.

Coastal Water Temperatures

Place Temperature
No Stations Reporting

Nearby Weather Stations